Gettysburg, SD

18:43 CST le 17 décembre 2014 (GMT -0600)
Aberdeen Regional | Change Station
CLOSE
Current Station
Aéroport
Location: Aberdeen,
Altitude: 1299 ft
Stations météo à proximité

Alt. 1299 ft 45.44 °N, 98.41 °W | Updated 50 minutes ago

Couvert
Couvert
11 ° F
Paraît 3 ° F
N
5
Vent Variable Vent de SE

Aujourd'hui
Haut(e) -- | Bas -- ° F
--% Risque de précip.
Hier
Haut(e) -- | Bas -- ° F
Precip. -- pouce
8:12 AM 4:59 PM
Lune descendante, 18% visible
Pression 30.37 pouce
Visibilité 10.0 Miles terrestres
Nuages Ciel dégagé
Refroidissement éolien 3 ° F
Point de rosée 6 ° F
Humidité 81%
Précipitations 0.00 pouce
Profondeur de la couche neigeuse Non disponible.
UV 0 sur 12
Pollen .10 sur 12
Qualité de l'air Non disponible.
Flu Activity Non disponible.
METAR KABR 172353Z AUTO 14004KT 10SM CLR M12/M14 A3028 RMK AO2 SLP283 T11171144 11067 21117 52004

More Conditions Fewer Conditions

Pression 30.37 pouce
Visibilité 10.0 Miles terrestres
Nuages Ciel dégagé
Refroidissement éolien 3 ° F
Point de rosée 6 ° F
Humidité 81%
Précipitations 0.00 pouce
Profondeur de la couche neigeuse Non disponible.
UV 0 sur 12
Pollen .10 sur 12
Qualité de l'air Non disponible.
Flu Activity Non disponible.
METAR KABR 172353Z AUTO 14004KT 10SM CLR M12/M14 A3028 RMK AO2 SLP283 T11171144 11067 21117 52004

More Conditions Fewer Conditions

10-Day Weather Forecast

Almanac

Astronomie

Dec. 17, 2014 Lever Coucher
Temps réel
Crépuscule civil
Crépuscule nautique
Crépuscule astronomique
Lune
Durée de lumière visible
Longueur du jour
Tomorrow will be .
, % of the Moon is Illuminated

Extrêmes aujourd'hui

State Highs State Lows

Community

WunderPhotos

Upload Photos

1,778,837 Photos téléchargées !

WunderBlogs® & News

Nearby

Qualité de l'air

  Qualité de l'air Indice de la qualité de l'air Polluant
Not available.

Épaisseur de neige

Station Depth Altitude

Activité sismique

Ville Distance Mag. Time & Date
Minimum magnitude displayed is 2.5.

Températures des eaux côtières

Lieu Température

Stations météo à proximité